Deanland Lewes Airport


Codes: EGKL/
Name: Deanland Lewes Airport
City: Lewes
Country: United Kingdom
Elevation: 69 ft.

Photos at Deanland Lewes Airport


   Photos courtesy of SpottingLog. You can add your own sightings and photos by signing up for a free trial today.



No photos found.

Weather at Deanland Lewes Airport


Time (UTC)DescriptionTempratureWindCloud coverageVisibilityPressureHumidity
18-Apr-2024 00:00Broken Clouds7°C13 mph, NW67%10000m1017hPa69%
18-Apr-2024 03:00Scattered Clouds6°C16 mph, N49%10000m1018hPa77%
18-Apr-2024 06:00Scattered Clouds5°C9 mph, N31%10000m1020hPa85%
18-Apr-2024 09:00Scattered Clouds8°C9 mph, N29%10000m1024hPa69%
18-Apr-2024 12:00Broken Clouds11°C4 mph, NW56%10000m1024hPa57%
18-Apr-2024 15:00Broken Clouds11°C13 mph, NW66%10000m1023hPa63%
18-Apr-2024 18:00Broken Clouds9°C18 mph, SW80%10000m1023hPa75%
18-Apr-2024 21:00Overcast Clouds9°C18 mph, W100%10000m1022hPa73%
19-Apr-2024 00:00Overcast Clouds9°C18 mph, W100%10000m1020hPa77%
19-Apr-2024 03:00Light Rain8°C18 mph, W100%10000m1018hPa85%
19-Apr-2024 06:00Overcast Clouds10°C16 mph, W100%10000m1017hPa85%
19-Apr-2024 09:00Light Rain11°C20 mph, NW97%10000m1017hPa76%
19-Apr-2024 12:00Light Rain11°C18 mph, NW84%10000m1018hPa67%
19-Apr-2024 15:00Light Rain10°C16 mph, N94%10000m1019hPa80%
19-Apr-2024 18:00Light Rain9°C9 mph, N64%10000m1021hPa73%
19-Apr-2024 21:00Clear Sky5°C9 mph, N6%10000m1024hPa81%
20-Apr-2024 00:00Clear Sky4°C11 mph, N8%10000m1025hPa74%
20-Apr-2024 03:00Clear Sky3°C9 mph, N6%10000m1027hPa84%
20-Apr-2024 06:00Clear Sky3°C11 mph, N8%10000m1028hPa83%
20-Apr-2024 09:00Few Clouds8°C16 mph, N14%10000m1029hPa62%
20-Apr-2024 12:00Scattered Clouds9°C16 mph, N28%10000m1030hPa59%
20-Apr-2024 15:00Broken Clouds9°C13 mph, NE68%10000m1030hPa62%
20-Apr-2024 18:00Broken Clouds8°C11 mph, N63%10000m1030hPa70%
20-Apr-2024 21:00Few Clouds5°C7 mph, N12%10000m1031hPa79%
21-Apr-2024 00:00Few Clouds4°C7 mph, N13%10000m1031hPa86%
21-Apr-2024 03:00Few Clouds3°C7 mph, N22%10000m1031hPa91%
21-Apr-2024 06:00Scattered Clouds4°C9 mph, N43%10000m1030hPa92%
21-Apr-2024 09:00Broken Clouds8°C13 mph, N82%10000m1030hPa74%
21-Apr-2024 12:00Overcast Clouds11°C16 mph, N89%10000m1029hPa59%
21-Apr-2024 15:00Broken Clouds10°C18 mph, NE82%10000m1029hPa63%
21-Apr-2024 18:00Scattered Clouds8°C13 mph, NE50%10000m1029hPa70%
21-Apr-2024 21:00Scattered Clouds6°C13 mph, NE48%10000m1030hPa74%
22-Apr-2024 00:00Scattered Clouds4°C11 mph, NE41%10000m1031hPa92%
22-Apr-2024 03:00Clear Sky3°C11 mph, N7%10000m1030hPa90%
22-Apr-2024 06:00Clear Sky4°C13 mph, N8%10000m1030hPa86%
22-Apr-2024 09:00Light Rain8°C16 mph, NE62%10000m1030hPa71%
22-Apr-2024 12:00Light Rain9°C13 mph, NE78%10000m1029hPa70%
22-Apr-2024 15:00Light Rain9°C16 mph, NE100%10000m1027hPa70%
22-Apr-2024 18:00Light Rain7°C13 mph, NE83%10000m1027hPa74%
22-Apr-2024 21:00Clear Sky5°C13 mph, NE10%10000m1028hPa78%